Weather at Pegasus Air Park

Public forecast

Using degrees Fahrenheit for public forecast. Weather courtesy of forecast.io.

Closest aviation weather report (METAR) to Pegasus Air Park

Closest report is Pocono Mountains Municipal Airport, 12.3 nm (22.8 km) N. Retrieved 2021/06/13 16:53 UTC (45 minutes ago):

KMPO 131653Z AUTO 22008KT 10SM OVC010 19/17 A2994 RMK AO2 SLP133 T01890167

Closest aviation forecast (TAF) to Pegasus Air Park

Closest forecast is Lehigh Valley International Airport, 17.4 nm (32.3 km) SSW. Retrieved 2021/06/13 12:33 UTC (5 hours ago):

TAF KABE 131130Z 1312/1412 VRB03KT P6SM OVC035 TEMPO 1312/1313 -SHRA OVC025 FM131900 19004KT P6SM BKN040 FM140100 18004KT P6SM -SHRA OVC025 FM140700 15004KT 4SM -SHRA BR OVC015